Pinellas Park, FL (33781)

7:24 AM EST on March 03, 2015 (GMT -0500)
Bonnie Glynn | Change Station
CLOSE
Current Station
Personal Weather Station
Location: Pinellas Park, FL
Elevation: 14 ft
Nearby Weather Stations
Active Advisory: Dense Fog Advisory

Elev 14 ft 27.83 °N, 82.74 °W | Updated 52 seconds ago

Overcast
Overcast
67.6 °F
Feels Like 67.6 °F
N
2.0
Wind Variable Wind from ENE
Gusts 2.7 mph

Today
High -- | Low -- °F
--% Chance of Precip.
Yesterday
High -- | Low -- °F
Precip. -- in
6:53 AM 6:32 PM
Waxing Gibbous, 96% visible
Pressure 30.19 in
Visibility 0.8 miles
Clouds
Dew Point 67 °F
Humidity 97%
Rainfall 0.00 in
Snow Depth Not available.
UV 0.0 out of 12
Pollen 9.20 out of 12
Air Quality Not available.
Flu Activity Not available.
METAR KPIE 031153Z 07004KT 3/4SM R18L/1600V2600FT BR VV002 19/19 A3020 RMK AO2 SLP224 T01890189 10194 20183 51004

More Conditions Fewer Conditions

Pressure 30.19 in
Visibility 0.8 miles
Clouds
Dew Point 67 °F
Humidity 97%
Rainfall 0.00 in
Snow Depth Not available.
UV 0.0 out of 12
Pollen 9.20 out of 12
Air Quality Not available.
Flu Activity Not available.
METAR KPIE 031153Z 07004KT 3/4SM R18L/1600V2600FT BR VV002 19/19 A3020 RMK AO2 SLP224 T01890189 10194 20183 51004

More Conditions Fewer Conditions

10-Day Weather Forecast

Almanac

Astronomy

Mar. 03, 2015 Rise Set
Actual Time
Civil Twilight
Nautical Twilight
Astronomical Twilight
Moon
Length of Visible Light
Length of Day
Tomorrow will be .
, % of the Moon is Illuminated

Today's Extremes

State Highs State Lows

Community

WunderPhotos

Upload Photos

1,802,095 photos uploaded!

WunderBlogs® & News

Nearby

Air Quality

  Air Quality AQ Index Pollutant
Not available.

Snow Depth

Station Depth Elevation

Earthquake Activity

City Distance Mag. Time & Date
Minimum magnitude displayed is 2.5.

Coastal Water Temperatures

Place Temperature

Nearby Weather Stations

Dense Fog Advisory
Statement as of 6:29 AM EST on March 03, 2015

... Dense fog advisory remains in effect until 9 am EST this
morning...

* visibility... areas of 1 mile but frequently down to 1/4 mile.

* Impacts... low visibility will result in dangerous driving
conditions.

Precautionary/preparedness actions...

Conditions will slowly improve after sunrise... however drivers
should take extra caution with the morning commute... be prepared
for rapidly changing visibility on the roadways... allow extra
time to reach their destination... slow down... use low beam
headlights... and maintain a safe distance between vehicles.